Kirtland, New Mexico
Current Conditions -  °F | °C
As of 8:53 AM on Friday 28 Nov 2014 (Local Time) from KFMN Reporting Station
Clear Clear  
Wind Chill: 25°   Ceiling: Unl
Heat Index: 32°   Visibility: 10mi
Dew Point: 21°   Wind: 8mph
Humidity: 64%   Direction: 100°E
Pressure: 30.27"   Gusts: NA
Location:  36.74°N, 108.34°W
Report Text: KFMN 281553Z 10007KT 10SM CLR 00/M06 A3027 RMK AO2 SLP272 T00001061
Loading
Personal Weather Stations






























Interactive Weather Map New forecast layout! Learn more

10-Day Weather Forecast

Advertisements
Track Severe Weather on mobile